Time;durP1;ratioP1;P1;durP2;ratioP2;P2;SDS_P1;SDS_P2;PMS_P1;PMS_P2;Temp;Humidity;BMP_temperature;BMP_pressure;BME280_temperature;BME280_humidity;BME280_pressure;Samples;Min_cycle;Max_cycle;Signal;HPM_P1;HPM_P2
2023/08/11 00:03:05;;;;;;;;;;;;;;;16.42;100.00;101975.34;10456657;28;19925;-74
2023/08/11 00:08:08;;;;;;;;;;;;;;;16.61;100.00;101967.09;10439009;28;19929;-74
2023/08/11 00:13:12;;;;;;;;;;;;;;;16.39;100.00;101964.97;10456241;28;20410;-74
2023/08/11 00:18:15;;;;;;;;;;;;;;;16.52;100.00;101965.91;10456487;28;19964;-74
2023/08/11 00:23:18;;;;;;;;;;;;;;;16.60;100.00;101962.78;10455907;28;20359;-74
2023/08/11 00:28:21;;;;;;;;;;;;;;;16.44;100.00;101965.53;10455880;28;20359;-74
2023/08/11 00:33:23;;;;;;;;;;;;;;;16.38;100.00;101960.66;10455889;28;20031;-74
2023/08/11 00:38:29;;;;;;;;;;;;;;;16.20;100.00;101957.38;10455929;28;19925;-74
2023/08/11 00:43:32;;;;;;;;;;;;;;;16.18;100.00;101956.63;10437876;28;19925;-75
2023/08/11 00:48:34;;;;;;;;;;;;;;;16.34;100.00;101949.44;10455676;28;19932;-74
2023/08/11 00:53:37;;;;;;;;;;;;;;;16.38;100.00;101955.38;10461761;28;20369;-74
2023/08/11 00:58:39;;;;;;;;;;;;;;;16.33;100.00;101943.28;10445676;28;19962;-74
2023/08/11 01:03:43;;;;;;;;;;;;;;;16.37;100.00;101941.28;10444852;28;20264;-75
2023/08/11 01:09:04;;;;;;;;;;;;;;;16.43;100.00;101938.25;10444981;28;19931;-74
2023/08/11 01:14:11;;;;;;;;;;;;;;;16.14;100.00;101945.41;10462255;28;20008;-74
2023/08/11 01:19:17;;;;;;;;;;;;;;;16.21;100.00;101941.44;10445018;28;19932;-74
2023/08/11 01:24:20;;;;;;;;;;;;;;;16.40;100.00;101919.13;10444222;28;19933;-74
2023/08/11 01:29:22;;;;;;;;;;;;;;;16.13;100.00;101918.13;10444316;28;19925;-74
2023/08/11 01:34:24;;;;;;;;;;;;;;;16.17;100.00;101910.84;10443710;28;20283;-74
2023/08/11 01:39:27;;;;;;;;;;;;;;;15.92;100.00;101911.53;10461494;28;19931;-74
2023/08/11 01:44:29;;;;;;;;;;;;;;;16.06;100.00;101916.81;10443967;28;19931;-74
2023/08/11 01:49:32;;;;;;;;;;;;;;;16.03;100.00;101909.06;10443226;28;19971;-74
2023/08/11 01:54:34;;;;;;;;;;;;;;;16.03;100.00;101911.72;10443273;28;19925;-74
2023/08/11 01:59:36;;;;;;;;;;;;;;;16.04;100.00;101896.72;10460343;28;19925;-74
2023/08/11 02:04:39;;;;;;;;;;;;;;;15.91;100.00;101901.94;10459534;28;19947;-74
2023/08/11 02:09:41;;;;;;;;;;;;;;;15.93;100.00;101902.69;10460252;28;19924;-74
2023/08/11 02:14:43;;;;;;;;;;;;;;;15.94;100.00;101909.66;10459837;28;20353;-74
2023/08/11 02:19:45;;;;;;;;;;;;;;;15.90;100.00;101914.31;10459949;28;19932;-74
2023/08/11 02:24:47;;;;;;;;;;;;;;;15.87;100.00;101910.97;10459481;28;19929;-74
2023/08/11 02:29:51;;;;;;;;;;;;;;;15.73;100.00;101910.00;10459299;28;20283;-74
2023/08/11 02:34:53;;;;;;;;;;;;;;;15.71;100.00;101903.97;10441625;28;19935;-74
2023/08/11 02:39:55;;;;;;;;;;;;;;;15.84;100.00;101898.00;10459593;28;19931;-74
2023/08/11 02:44:58;;;;;;;;;;;;;;;15.79;100.00;101885.06;10458736;28;19935;-74
2023/08/11 02:50:00;;;;;;;;;;;;;;;15.88;100.00;101884.47;10458595;28;19931;-74
2023/08/11 02:55:03;;;;;;;;;;;;;;;15.77;100.00;101885.16;10458273;28;20269;-74
2023/08/11 03:00:13;;;;;;;;;;;;;;;15.82;100.00;101882.25;10457951;28;19925;-74
2023/08/11 03:05:16;;;;;;;;;;;;;;;15.72;100.00;101892.47;10441288;28;20012;-74
2023/08/11 03:10:18;;;;;;;;;;;;;;;15.65;100.00;101888.53;10439983;28;19928;-74
2023/08/11 03:15:20;;;;;;;;;;;;;;;15.70;100.00;101889.09;10439938;28;20011;-74
2023/08/11 03:20:24;;;;;;;;;;;;;;;15.86;100.00;101888.16;10457600;28;19925;-74
2023/08/11 03:25:26;;;;;;;;;;;;;;;16.06;100.00;101881.63;10457632;28;19925;-74
2023/08/11 03:30:28;;;;;;;;;;;;;;;16.18;100.00;101885.28;10457354;28;19976;-74
2023/08/11 03:35:34;;;;;;;;;;;;;;;16.15;100.00;101878.41;10439435;28;20429;-74
2023/08/11 03:40:36;;;;;;;;;;;;;;;15.91;100.00;101879.00;10457311;28;20008;-74
2023/08/11 03:45:38;;;;;;;;;;;;;;;15.92;100.00;101875.44;10456890;28;19928;-74
2023/08/11 03:50:40;;;;;;;;;;;;;;;16.04;100.00;101876.44;10456652;28;19929;-74
2023/08/11 03:55:45;;;;;;;;;;;;;;;15.53;100.00;101873.44;10456813;28;19924;-74
2023/08/11 04:00:48;;;;;;;;;;;;;;;15.98;100.00;101872.38;10456812;28;19964;-74
2023/08/11 04:05:50;;;;;;;;;;;;;;;15.76;100.00;101870.25;10455165;28;19925;-74
2023/08/11 04:10:55;;;;;;;;;;;;;;;16.03;100.00;101869.47;10456426;28;19924;-74
2023/08/11 04:15:59;;;;;;;;;;;;;;;16.11;100.00;101858.41;10438536;28;20360;-74
2023/08/11 04:21:01;;;;;;;;;;;;;;;16.05;100.00;101853.50;10456142;28;19925;-74
2023/08/11 04:26:05;;;;;;;;;;;;;;;15.98;100.00;101858.34;10458591;28;19925;-74
2023/08/11 04:31:09;;;;;;;;;;;;;;;15.84;100.00;101859.22;10464135;28;20112;-74
2023/08/11 04:36:11;;;;;;;;;;;;;;;15.90;100.00;101855.34;10446371;28;20055;-74
2023/08/11 04:41:13;;;;;;;;;;;;;;;15.96;100.00;101862.88;10446144;28;19932;-74
2023/08/11 04:46:16;;;;;;;;;;;;;;;15.82;100.00;101871.69;10463354;28;20047;-74
2023/08/11 04:51:18;;;;;;;;;;;;;;;15.87;100.00;101866.94;10445515;28;19928;-74
2023/08/11 04:56:20;;;;;;;;;;;;;;;16.14;100.00;101867.00;10463098;28;19925;-74
2023/08/11 05:01:22;;;;;;;;;;;;;;;16.20;100.00;101865.72;10381146;28;20012;-73
2023/08/11 05:06:25;;;;;;;;;;;;;;;16.59;100.00;101855.31;10380580;28;19976;-74
2023/08/11 05:11:27;;;;;;;;;;;;;;;16.50;100.00;101852.31;10380229;28;20287;-74
2023/08/11 05:16:31;;;;;;;;;;;;;;;16.79;100.00;101856.63;10380331;28;19961;-74
2023/08/11 05:21:33;;;;;;;;;;;;;;;16.80;100.00;101853.06;10380306;28;20361;-74
2023/08/11 05:26:36;;;;;;;;;;;;;;;16.81;100.00;101844.16;10379583;28;19932;-74
2023/08/11 05:31:38;;;;;;;;;;;;;;;16.92;100.00;101828.44;10379670;28;19929;-74
2023/08/11 05:36:40;;;;;;;;;;;;;;;17.06;100.00;101822.19;10393427;28;19980;-63
2023/08/11 05:41:42;;;;;;;;;;;;;;;17.02;100.00;101826.84;10377840;28;20028;-68
2023/08/11 05:46:44;;;;;;;;;;;;;;;17.23;100.00;101821.03;10379031;28;19925;-68
2023/08/11 05:51:47;;;;;;;;;;;;;;;16.96;100.00;101827.25;10378942;28;19933;-68
2023/08/11 05:56:52;;;;;;;;;;;;;;;17.03;100.00;101812.69;10385699;28;19931;-67
2023/08/11 06:01:55;;;;;;;;;;;;;;;17.21;100.00;101807.91;10460468;28;19929;-67
2023/08/11 06:06:57;;;;;;;;;;;;;;;17.41;100.00;101813.63;10460251;28;19924;-67
2023/08/11 06:11:59;;;;;;;;;;;;;;;17.34;100.00;101810.56;10460119;28;19928;-63
2023/08/11 06:17:01;;;;;;;;;;;;;;;17.46;100.00;101820.28;10460074;28;19932;-64
2023/08/11 06:22:03;;;;;;;;;;;;;;;17.49;100.00;101827.16;10459715;28;19931;-65
2023/08/11 06:27:06;;;;;;;;;;;;;;;17.66;100.00;101819.84;10459495;28;20359;-65
2023/08/11 06:32:08;;;;;;;;;;;;;;;17.79;100.00;101821.50;10459290;28;19951;-65
2023/08/11 06:37:11;;;;;;;;;;;;;;;18.07;100.00;101819.53;10459228;28;20011;-64
2023/08/11 06:42:13;;;;;;;;;;;;;;;17.94;100.00;101837.28;10458841;28;20024;-65
2023/08/11 06:47:15;;;;;;;;;;;;;;;18.15;100.00;101832.22;10458786;28;20363;-68
2023/08/11 06:52:17;;;;;;;;;;;;;;;18.19;98.71;101826.59;10441277;28;20358;-68
2023/08/11 06:57:20;;;;;;;;;;;;;;;18.65;95.66;101824.97;10458417;28;19932;-68
2023/08/11 07:02:23;;;;;;;;;;;;;;;18.76;96.79;101834.75;10458054;28;19970;-68
2023/08/11 07:07:25;;;;;;;;;;;;;;;18.86;94.26;101833.13;10458160;28;19925;-67
2023/08/11 07:12:27;;;;;;;;;;;;;;;19.15;93.09;101845.97;10457858;28;19943;-68
2023/08/11 07:17:29;;;;;;;;;;;;;;;19.18;92.87;101848.41;10457645;28;20371;-68
2023/08/11 07:22:32;;;;;;;;;;;;;;;19.49;91.35;101848.66;10457391;28;19970;-67
2023/08/11 07:27:34;;;;;;;;;;;;;;;20.38;87.40;101851.31;10457722;28;19940;-66
2023/08/11 07:32:36;;;;;;;;;;;;;;;21.10;84.56;101850.59;10457397;28;19925;-66
2023/08/11 07:37:39;;;;;;;;;;;;;;;21.36;81.08;101849.31;10457023;28;20008;-66
2023/08/11 07:42:41;;;;;;;;;;;;;;;22.04;80.66;101837.09;10457027;28;19936;-66
2023/08/11 07:47:43;;;;;;;;;;;;;;;22.15;80.12;101837.94;10456791;28;20455;-67
2023/08/11 07:52:46;;;;;;;;;;;;;;;22.99;78.15;101834.69;10457241;28;19924;-67
2023/08/11 07:57:48;;;;;;;;;;;;;;;23.04;75.95;101835.09;10456656;28;20272;-67
2023/08/11 08:02:54;;;;;;;;;;;;;;;23.20;75.54;101837.19;10444563;28;19924;-66
2023/08/11 08:07:56;;;;;;;;;;;;;;;22.98;76.03;101841.84;10447424;28;19925;-66
2023/08/11 08:12:58;;;;;;;;;;;;;;;23.77;73.13;101839.75;10447134;28;20011;-67
2023/08/11 08:18:01;;;;;;;;;;;;;;;24.33;72.30;101842.34;10464472;28;19974;-66
2023/08/11 08:23:03;;;;;;;;;;;;;;;24.40;72.90;101833.53;10464304;28;19971;-67
2023/08/11 08:28:05;;;;;;;;;;;;;;;24.50;71.35;101836.13;10464755;28;19931;-67
2023/08/11 08:33:08;;;;;;;;;;;;;;;24.10;70.66;101846.28;10446477;28;20087;-66
2023/08/11 08:38:10;;;;;;;;;;;;;;;25.43;69.73;101846.34;10463837;28;19928;-66
2023/08/11 08:43:13;;;;;;;;;;;;;;;25.82;68.29;101839.59;10463494;28;19925;-67
2023/08/11 08:48:28;;;;;;;;;;;;;;;26.23;67.90;101832.50;10463455;28;19931;-67
2023/08/11 08:53:30;;;;;;;;;;;;;;;26.59;66.34;101828.66;10463481;28;19925;-67
2023/08/11 08:58:33;;;;;;;;;;;;;;;26.66;63.58;101822.47;10445632;28;19931;-67
2023/08/11 09:03:37;;;;;;;;;;;;;;;26.09;63.08;101823.28;10462736;28;19925;-66
2023/08/11 09:08:39;;;;;;;;;;;;;;;26.64;64.25;101824.47;10462603;28;19925;-67
2023/08/11 09:13:43;;;;;;;;;;;;;;;27.73;63.27;101824.81;10462275;28;20008;-67
2023/08/11 09:18:45;;;;;;;;;;;;;;;27.19;63.80;101833.59;10462318;28;19947;-67
2023/08/11 09:23:48;;;;;;;;;;;;;;;27.69;58.75;101842.34;10461999;28;20027;-66
2023/08/11 09:28:50;;;;;;;;;;;;;;;27.22;59.22;101832.44;10461821;28;20308;-66
2023/08/11 09:33:52;;;;;;;;;;;;;;;27.88;59.55;101827.59;10461886;28;19924;-66
2023/08/11 09:38:55;;;;;;;;;;;;;;;28.37;56.73;101823.75;10461459;28;20397;-66
2023/08/11 09:43:58;;;;;;;;;;;;;;;28.54;57.48;101822.56;10461432;28;19925;-66
2023/08/11 09:49:00;;;;;;;;;;;;;;;28.61;59.55;101822.72;10461174;28;19931;-66
2023/08/11 09:54:07;;;;;;;;;;;;;;;29.06;57.98;101822.78;10461026;28;19932;-66
2023/08/11 09:59:11;;;;;;;;;;;;;;;30.40;52.89;101817.09;10461180;28;19975;-66
2023/08/11 10:04:22;;;;;;;;;;;;;;;30.21;55.44;101810.44;10442686;28;20314;-66
2023/08/11 10:09:25;;;;;;;;;;;;;;;30.85;53.67;101811.38;10460213;28;20012;-66
2023/08/11 10:14:28;;;;;;;;;;;;;;;30.63;52.92;101816.88;10461396;23;20012;-64
2023/08/11 10:19:30;;;;;;;;;;;;;;;30.51;51.47;101803.06;10458940;28;19929;-64
2023/08/11 10:24:36;;;;;;;;;;;;;;;31.99;51.64;101812.69;10458261;28;20015;-64
2023/08/11 10:29:38;;;;;;;;;;;;;;;30.33;51.92;101808.06;10460032;28;19970;-64
2023/08/11 10:34:40;;;;;;;;;;;;;;;30.10;51.87;101813.69;10458134;28;19925;-63
2023/08/11 10:39:43;;;;;;;;;;;;;;;30.29;51.04;101812.19;10459546;28;20347;-65
2023/08/11 10:44:45;;;;;;;;;;;;;;;30.99;50.08;101817.75;10458883;28;19931;-65
2023/08/11 10:49:47;;;;;;;;;;;;;;;31.56;51.37;101813.88;10440855;28;19932;-65
2023/08/11 10:54:51;;;;;;;;;;;;;;;30.50;52.08;101805.97;10458610;28;19931;-65
2023/08/11 10:59:53;;;;;;;;;;;;;;;31.25;52.96;101811.63;10458645;28;20284;-65
2023/08/11 11:04:55;;;;;;;;;;;;;;;29.96;53.30;101801.94;10458224;28;20019;-65
2023/08/11 11:09:57;;;;;;;;;;;;;;;31.38;52.02;101797.31;10456797;28;20373;-64
2023/08/11 11:15:00;;;;;;;;;;;;;;;32.34;46.67;101799.84;10457558;28;19931;-65
2023/08/11 11:20:02;;;;;;;;;;;;;;;33.42;47.89;101811.31;10456779;28;19951;-65
2023/08/11 11:25:05;;;;;;;;;;;;;;;34.13;44.25;101798.56;10457436;28;20024;-64
2023/08/11 11:30:08;;;;;;;;;;;;;;;33.05;45.79;101805.59;10456056;28;20378;-64
2023/08/11 11:35:10;;;;;;;;;;;;;;;33.07;47.00;101792.63;10456154;28;20058;-64
2023/08/11 11:40:13;;;;;;;;;;;;;;;33.42;43.44;101795.88;10456923;28;19964;-65
2023/08/11 11:45:16;;;;;;;;;;;;;;;33.45;42.41;101790.00;10457108;28;19925;-64
2023/08/11 11:50:18;;;;;;;;;;;;;;;34.08;42.79;101791.09;10456607;28;20276;-64
2023/08/11 11:55:20;;;;;;;;;;;;;;;34.55;44.00;101780.66;10456613;28;19964;-64
2023/08/11 12:00:25;;;;;;;;;;;;;;;33.86;43.46;101786.03;10455673;28;20382;-64
2023/08/11 12:05:27;;;;;;;;;;;;;;;34.55;43.71;101782.53;10439557;28;19983;-64
2023/08/11 12:10:33;;;;;;;;;;;;;;;33.30;44.00;101775.88;10456465;28;19932;-64
2023/08/11 12:15:36;;;;;;;;;;;;;;;33.50;44.33;101778.50;10455061;28;20360;-65
2023/08/11 12:20:38;;;;;;;;;;;;;;;33.59;43.37;101768.19;10456205;28;20394;-64
2023/08/11 12:25:40;;;;;;;;;;;;;;;34.86;43.11;101761.75;10455920;28;19924;-64
2023/08/11 12:30:42;;;;;;;;;;;;;;;34.84;40.66;101772.03;10456038;28;20015;-64
2023/08/11 12:35:45;;;;;;;;;;;;;;;34.20;43.88;101777.63;10455989;28;19924;-64
2023/08/11 12:40:48;;;;;;;;;;;;;;;33.74;41.93;101757.88;10455900;28;20390;-64
2023/08/11 12:45:50;;;;;;;;;;;;;;;34.66;44.08;101761.94;10452897;28;19929;-64
2023/08/11 12:50:52;;;;;;;;;;;;;;;34.54;44.33;101761.84;10461167;28;20429;-64
2023/08/11 12:55:55;;;;;;;;;;;;;;;34.66;44.42;101737.47;10464181;28;19925;-64
2023/08/11 13:00:57;;;;;;;;;;;;;;;35.17;40.20;101739.78;10462514;28;19974;-64
2023/08/11 13:05:59;;;;;;;;;;;;;;;34.52;42.63;101739.50;10462501;28;19925;-64
2023/08/11 13:11:02;;;;;;;;;;;;;;;31.89;45.15;101733.75;10462928;28;19925;-65
2023/08/11 13:16:04;;;;;;;;;;;;;;;33.08;45.32;101735.44;10462180;28;20019;-64
2023/08/11 13:21:06;;;;;;;;;;;;;;;33.20;45.33;101738.34;10462252;28;20336;-64
2023/08/11 13:26:09;;;;;;;;;;;;;;;32.45;47.40;101752.31;10462510;28;19924;-68
2023/08/11 13:31:11;;;;;;;;;;;;;;;32.40;47.29;101742.09;10462399;28;19925;-68
2023/08/11 13:36:15;;;;;;;;;;;;;;;32.88;48.79;101745.56;10462178;28;19929;-68
2023/08/11 13:41:17;;;;;;;;;;;;;;;32.41;45.39;101737.50;10461714;28;20354;-68
2023/08/11 13:46:20;;;;;;;;;;;;;;;33.20;45.78;101741.06;10461730;28;19931;-67
2023/08/11 13:51:22;;;;;;;;;;;;;;;33.52;45.13;101727.53;10460674;28;19932;-68
2023/08/11 13:56:24;;;;;;;;;;;;;;;32.18;48.38;101727.13;10461540;28;19931;-69
2023/08/11 14:01:27;;;;;;;;;;;;;;;33.32;46.95;101724.94;10460345;28;19931;-68
2023/08/11 14:06:29;;;;;;;;;;;;;;;32.45;48.70;101722.50;10461043;28;20007;-68
2023/08/11 14:11:31;;;;;;;;;;;;;;;33.09;44.60;101720.03;10461212;28;20011;-69
2023/08/11 14:16:33;;;;;;;;;;;;;;;32.29;48.86;101709.41;10458935;28;19925;-68
2023/08/11 14:21:36;;;;;;;;;;;;;;;31.56;47.28;101712.91;10459322;28;19925;-68
2023/08/11 14:26:38;;;;;;;;;;;;;;;31.58;50.92;101711.66;10459499;28;20019;-68
2023/08/11 14:31:40;;;;;;;;;;;;;;;31.88;50.00;101715.84;10459393;28;19924;-68
2023/08/11 14:36:43;;;;;;;;;;;;;;;31.82;51.57;101712.91;10459851;28;19925;-68
2023/08/11 14:41:47;;;;;;;;;;;;;;;31.60;53.36;101709.56;10458980;28;19925;-68
2023/08/11 14:46:49;;;;;;;;;;;;;;;30.73;53.57;101711.09;10458789;28;20376;-68
2023/08/11 14:51:53;;;;;;;;;;;;;;;30.82;50.40;101700.97;10459255;28;20016;-68
2023/08/11 14:56:56;;;;;;;;;;;;;;;30.79;51.38;101704.06;10459084;28;20016;-68
2023/08/11 15:01:58;;;;;;;;;;;;;;;30.79;53.85;101704.88;10458260;28;20441;-68
2023/08/11 15:07:01;;;;;;;;;;;;;;;30.51;56.79;101707.63;10458283;28;20368;-68
2023/08/11 15:12:03;;;;;;;;;;;;;;;30.50;59.60;101711.41;10458219;28;19929;-68
2023/08/11 15:17:06;;;;;;;;;;;;;;;30.19;55.75;101705.34;10457750;28;19924;-68
2023/08/11 15:22:08;;;;;;;;;;;;;;;30.23;57.87;101703.06;10458378;28;20008;-68
2023/08/11 15:27:12;;;;;;;;;;;;;;;30.05;60.64;101697.31;10456413;28;20334;-68
2023/08/11 15:32:15;;;;;;;;;;;;;;;30.24;57.24;101691.22;10456069;28;20387;-68
2023/08/11 15:37:17;;;;;;;;;;;;;;;29.92;56.11;101679.97;10457142;28;20408;-68
2023/08/11 15:42:19;;;;;;;;;;;;;;;30.00;55.08;101671.75;10456870;28;19971;-67
2023/08/11 15:47:21;;;;;;;;;;;;;;;29.63;59.23;101676.38;10456763;28;20260;-68
2023/08/11 15:52:24;;;;;;;;;;;;;;;29.45;61.46;101670.59;10457339;28;19924;-68
2023/08/11 15:57:26;;;;;;;;;;;;;;;29.14;63.65;101671.69;10457224;28;19924;-67
2023/08/11 16:02:28;;;;;;;;;;;;;;;28.89;63.69;101681.97;10457093;28;19929;-68
2023/08/11 16:07:31;;;;;;;;;;;;;;;28.59;65.89;101675.78;10457012;28;19968;-68
2023/08/11 16:12:33;;;;;;;;;;;;;;;28.67;65.02;101689.16;10456306;28;20383;-68
2023/08/11 16:17:35;;;;;;;;;;;;;;;28.72;67.26;101670.56;10455943;28;20003;-68
2023/08/11 16:22:38;;;;;;;;;;;;;;;28.95;65.62;101667.75;10459580;28;20268;-63
2023/08/11 16:27:40;;;;;;;;;;;;;;;28.77;67.05;101665.44;10464814;28;19931;-63
2023/08/11 16:32:42;;;;;;;;;;;;;;;29.16;65.95;101648.06;10464742;28;20004;-63
2023/08/11 16:37:44;;;;;;;;;;;;;;;29.02;66.15;101648.97;10465041;28;19925;-63
2023/08/11 16:42:47;;;;;;;;;;;;;;;28.56;68.63;101662.66;10462602;28;20364;-63
2023/08/11 16:47:49;;;;;;;;;;;;;;;28.40;68.48;101652.91;10464113;28;19998;-63
2023/08/11 16:52:53;;;;;;;;;;;;;;;27.36;70.61;101669.56;10446280;28;19924;-63
2023/08/11 16:57:55;;;;;;;;;;;;;;;27.27;71.85;101667.91;10463177;28;19925;-62
2023/08/11 17:02:57;;;;;;;;;;;;;;;27.06;71.36;101666.69;10462930;28;20257;-62
2023/08/11 17:08:00;;;;;;;;;;;;;;;26.93;73.30;101671.78;10463361;28;19924;-62
2023/08/11 17:13:02;;;;;;;;;;;;;;;26.44;74.24;101673.59;10462606;28;20363;-63
2023/08/11 17:18:05;;;;;;;;;;;;;;;26.48;74.10;101674.94;10462278;28;19996;-63
2023/08/11 17:23:07;;;;;;;;;;;;;;;26.65;74.15;101675.75;10462929;28;19971;-63
2023/08/11 17:28:09;;;;;;;;;;;;;;;26.37;73.31;101671.78;10462530;28;19925;-63
2023/08/11 17:33:12;;;;;;;;;;;;;;;26.03;76.81;101680.91;10462599;28;20015;-63
2023/08/11 17:38:15;;;;;;;;;;;;;;;26.01;77.76;101675.69;10462206;28;19932;-63
2023/08/11 17:43:17;;;;;;;;;;;;;;;25.99;77.66;101679.53;10461469;28;20052;-63
2023/08/11 17:48:19;;;;;;;;;;;;;;;25.59;80.25;101682.03;10461763;28;19937;-63
2023/08/11 17:53:21;;;;;;;;;;;;;;;25.82;79.03;101678.66;10461041;28;19925;-63
2023/08/11 17:58:23;;;;;;;;;;;;;;;25.83;78.11;101673.16;10460753;28;19925;-63
2023/08/11 18:03:26;;;;;;;;;;;;;;;25.58;79.16;101681.16;10460550;28;20447;-63
2023/08/11 18:08:28;;;;;;;;;;;;;;;25.47;80.72;101688.69;10459937;28;19931;-63
2023/08/11 18:13:30;;;;;;;;;;;;;;;25.04;80.67;101686.84;10460958;28;20007;-63
2023/08/11 18:18:33;;;;;;;;;;;;;;;25.14;78.60;101688.56;10458846;28;19925;-63
2023/08/11 18:23:35;;;;;;;;;;;;;;;25.02;78.17;101682.69;10459750;28;20019;-63
2023/08/11 18:28:37;;;;;;;;;;;;;;;24.59;80.00;101695.19;10459656;28;19924;-63
2023/08/11 18:33:39;;;;;;;;;;;;;;;24.76;79.67;101694.25;10460114;28;20001;-63
2023/08/11 18:38:44;;;;;;;;;;;;;;;24.73;79.57;101694.59;10459143;28;20205;-64
2023/08/11 18:43:47;;;;;;;;;;;;;;;24.42;80.51;101692.38;10458523;28;20498;-63
2023/08/11 18:48:50;;;;;;;;;;;;;;;24.47;81.76;101707.97;10459545;28;19944;-64
2023/08/11 18:53:52;;;;;;;;;;;;;;;24.22;83.49;101699.75;10458136;28;19925;-64
2023/08/11 18:58:54;;;;;;;;;;;;;;;24.43;83.97;101699.41;10458483;28;20015;-64
2023/08/11 19:03:57;;;;;;;;;;;;;;;24.13;84.23;101707.91;10458222;28;19933;-64
2023/08/11 19:08:59;;;;;;;;;;;;;;;23.96;86.24;101710.44;10458707;28;19978;-64
2023/08/11 19:14:01;;;;;;;;;;;;;;;23.87;86.86;101709.53;10457538;28;19931;-64
2023/08/11 19:19:04;;;;;;;;;;;;;;;24.01;86.96;101707.31;10456608;28;19925;-64
2023/08/11 19:24:06;;;;;;;;;;;;;;;24.19;85.41;101718.81;10457559;28;20294;-64
2023/08/11 19:29:09;;;;;;;;;;;;;;;23.70;88.63;101727.22;10457416;28;19924;-63
2023/08/11 19:34:12;;;;;;;;;;;;;;;24.01;86.81;101718.00;10457345;28;20399;-63
2023/08/11 19:39:14;;;;;;;;;;;;;;;23.78;88.76;101718.41;10457769;28;20015;-63
2023/08/11 19:44:16;;;;;;;;;;;;;;;23.93;88.32;101726.78;10455748;28;19925;-64
2023/08/11 19:49:20;;;;;;;;;;;;;;;23.40;94.05;101724.88;10457539;28;19924;-64
2023/08/11 19:54:22;;;;;;;;;;;;;;;23.58;93.22;101723.06;10457178;28;20372;-64
2023/08/11 19:59:24;;;;;;;;;;;;;;;23.44;95.82;101734.28;10456395;28;20015;-64
2023/08/11 20:04:27;;;;;;;;;;;;;;;23.31;96.66;101734.63;10456501;28;19925;-64
2023/08/11 20:09:29;;;;;;;;;;;;;;;23.47;96.07;101731.28;10457048;28;19928;-63
2023/08/11 20:14:33;;;;;;;;;;;;;;;23.35;97.09;101723.50;10456266;28;20299;-63
2023/08/11 20:19:35;;;;;;;;;;;;;;;23.41;98.63;101722.06;10456943;28;19931;-64
2023/08/11 20:24:37;;;;;;;;;;;;;;;23.17;98.50;101718.09;10456088;28;20291;-63
2023/08/11 20:29:39;;;;;;;;;;;;;;;23.09;100.00;101723.34;10456010;28;20027;-64
2023/08/11 20:34:42;;;;;;;;;;;;;;;22.91;100.00;101733.09;10454762;28;20443;-64
2023/08/11 20:39:44;;;;;;;;;;;;;;;23.01;100.00;101720.53;10456460;28;19925;-64
2023/08/11 20:44:48;;;;;;;;;;;;;;;23.09;100.00;101720.69;10455764;28;19964;-65
2023/08/11 20:49:50;;;;;;;;;;;;;;;22.75;100.00;101725.72;10456283;28;19925;-64
2023/08/11 20:54:53;;;;;;;;;;;;;;;22.75;100.00;101715.03;10455571;28;19924;-65
2023/08/11 20:59:55;;;;;;;;;;;;;;;22.54;100.00;101710.72;10456115;28;19924;-65
2023/08/11 21:04:57;;;;;;;;;;;;;;;22.47;100.00;101709.63;10455386;28;20280;-65
2023/08/11 21:10:00;;;;;;;;;;;;;;;22.51;100.00;101713.69;10461217;28;19929;-65
2023/08/11 21:15:02;;;;;;;;;;;;;;;22.36;100.00;101729.31;10462923;28;19924;-64
2023/08/11 21:20:05;;;;;;;;;;;;;;;22.36;100.00;101726.66;10462362;28;20380;-65
2023/08/11 21:25:07;;;;;;;;;;;;;;;22.24;100.00;101723.25;10461188;28;19925;-65
2023/08/11 21:30:10;;;;;;;;;;;;;;;22.23;100.00;101732.22;10461487;28;19935;-65
2023/08/11 21:35:12;;;;;;;;;;;;;;;22.13;100.00;101731.41;10462486;28;19925;-65
2023/08/11 21:40:14;;;;;;;;;;;;;;;22.10;100.00;101731.69;10462549;28;19925;-65
2023/08/11 21:45:17;;;;;;;;;;;;;;;22.23;100.00;101734.91;10462016;28;19924;-65
2023/08/11 21:50:20;;;;;;;;;;;;;;;22.06;100.00;101741.78;10461814;28;19975;-65
2023/08/11 21:55:22;;;;;;;;;;;;;;;21.95;100.00;101730.41;10461694;28;19959;-65
2023/08/11 22:00:24;;;;;;;;;;;;;;;22.00;100.00;101736.16;10460771;28;20287;-65
2023/08/11 22:05:27;;;;;;;;;;;;;;;21.61;100.00;101744.97;10461493;28;20340;-65
2023/08/11 22:10:29;;;;;;;;;;;;;;;21.64;100.00;101751.88;10460604;28;20443;-65
2023/08/11 22:15:32;;;;;;;;;;;;;;;21.59;100.00;101743.44;10460640;28;19925;-65
2023/08/11 22:20:34;;;;;;;;;;;;;;;21.57;100.00;101748.03;10460116;28;19925;-65
2023/08/11 22:25:36;;;;;;;;;;;;;;;21.52;100.00;101745.81;10460384;28;19924;-65
2023/08/11 22:30:39;;;;;;;;;;;;;;;21.44;100.00;101750.94;10467593;22;19925;-65
2023/08/11 22:35:43;;;;;;;;;;;;;;;21.51;100.00;101746.78;10460125;28;19959;-66
2023/08/11 22:40:45;;;;;;;;;;;;;;;21.48;100.00;101749.72;10459256;28;20458;-66
2023/08/11 22:45:48;;;;;;;;;;;;;;;21.27;100.00;101760.41;10459621;28;19925;-66
2023/08/11 22:50:50;;;;;;;;;;;;;;;21.28;100.00;101754.97;10459655;28;19978;-66
2023/08/11 22:55:52;;;;;;;;;;;;;;;21.32;100.00;101743.03;10459473;28;19924;-66
2023/08/11 23:00:54;;;;;;;;;;;;;;;21.13;100.00;101735.84;10459098;28;19925;-66
2023/08/11 23:05:57;;;;;;;;;;;;;;;21.30;100.00;101729.03;10458797;28;19925;-66
2023/08/11 23:10:59;;;;;;;;;;;;;;;21.19;100.00;101722.97;10458050;28;20283;-66
2023/08/11 23:16:01;;;;;;;;;;;;;;;21.06;100.00;101723.19;10458051;28;20007;-66
2023/08/11 23:21:04;;;;;;;;;;;;;;;20.97;100.00;101719.53;10458362;28;19925;-66
2023/08/11 23:26:06;;;;;;;;;;;;;;;21.13;100.00;101717.19;10457938;28;19931;-67
2023/08/11 23:31:08;;;;;;;;;;;;;;;20.92;100.00;101721.75;10457643;28;19947;-67
2023/08/11 23:36:11;;;;;;;;;;;;;;;21.10;100.00;101708.66;10457248;28;20338;-67
2023/08/11 23:41:13;;;;;;;;;;;;;;;20.84;100.00;101716.22;10457834;28;19978;-67
2023/08/11 23:46:15;;;;;;;;;;;;;;;20.96;100.00;101715.16;10456895;28;19932;-67
2023/08/11 23:51:19;;;;;;;;;;;;;;;21.06;100.00;101704.56;10457533;28;19928;-67
2023/08/11 23:56:21;;;;;;;;;;;;;;;21.18;100.00;101702.63;10457409;28;19971;-67
